createdAt,value
2022-07-29T00:02:08.960Z,16.70
2022-07-29T00:04:42.574Z,16.60
2022-07-29T00:07:16.019Z,16.50
2022-07-29T00:09:51.995Z,16.50
2022-07-29T00:12:27.641Z,16.40
2022-07-29T00:15:03.400Z,16.30
2022-07-29T00:17:36.940Z,16.30
2022-07-29T00:20:11.623Z,16.30
2022-07-29T00:22:45.031Z,16.20
2022-07-29T00:25:18.653Z,16.20
2022-07-29T00:27:53.465Z,16.10
2022-07-29T00:30:26.864Z,16.00
2022-07-29T00:33:00.282Z,16.00
2022-07-29T00:35:44.923Z,15.90
2022-07-29T00:38:19.934Z,15.90
2022-07-29T00:40:53.540Z,15.90
2022-07-29T00:43:28.516Z,15.80
2022-07-29T00:46:01.908Z,15.80
2022-07-29T00:48:35.393Z,15.70
2022-07-29T00:51:11.309Z,15.70
2022-07-29T00:53:45.225Z,15.70
2022-07-29T00:56:18.723Z,15.70
2022-07-29T00:58:54.469Z,15.60
2022-07-29T01:01:28.522Z,15.60
2022-07-29T01:04:01.978Z,15.50
2022-07-29T01:06:37.045Z,15.50
2022-07-29T01:09:12.088Z,15.50
2022-07-29T01:11:48.680Z,15.50
2022-07-29T01:14:24.240Z,15.40
2022-07-29T01:17:06.633Z,15.40
2022-07-29T01:19:50.836Z,15.40
2022-07-29T01:22:39.227Z,15.30
2022-07-29T01:25:40.797Z,15.30
2022-07-29T01:28:45.693Z,15.30
2022-07-29T01:31:25.341Z,15.30
2022-07-29T01:34:10.133Z,15.20
2022-07-29T01:36:49.102Z,15.20
2022-07-29T01:39:33.434Z,15.20
2022-07-29T01:42:14.854Z,15.20
2022-07-29T01:44:56.116Z,15.20
2022-07-29T01:47:37.028Z,15.10
2022-07-29T01:50:14.880Z,15.20
2022-07-29T01:52:59.064Z,15.20
2022-07-29T01:55:37.047Z,15.20
2022-07-29T01:58:13.003Z,15.20
2022-07-29T02:00:48.954Z,15.20
2022-07-29T02:03:23.480Z,15.20
2022-07-29T02:05:59.623Z,15.20
2022-07-29T02:08:35.323Z,15.20
2022-07-29T02:11:10.570Z,15.20
2022-07-29T02:13:45.980Z,15.20
2022-07-29T02:16:24.092Z,15.20
2022-07-29T02:18:59.769Z,15.20
2022-07-29T02:21:35.967Z,15.20
2022-07-29T02:24:13.998Z,15.20
2022-07-29T02:30:13.474Z,15.10
2022-07-29T02:32:51.632Z,15.10
2022-07-29T02:35:25.742Z,15.10
2022-07-29T02:38:16.882Z,15.00
2022-07-29T02:40:52.878Z,15.00
2022-07-29T02:43:28.121Z,15.00
2022-07-29T02:46:02.874Z,15.00
2022-07-29T02:48:42.927Z,15.00
2022-07-29T02:51:44.036Z,15.00
2022-07-29T02:54:25.981Z,15.00
2022-07-29T02:57:03.045Z,15.00
2022-07-29T02:59:40.352Z,15.00
2022-07-29T03:02:16.062Z,15.10
2022-07-29T03:04:52.346Z,15.10
2022-07-29T03:07:26.568Z,15.10
2022-07-29T03:10:01.252Z,15.10
2022-07-29T03:12:35.257Z,15.10
2022-07-29T03:15:09.701Z,15.10
2022-07-29T03:17:44.033Z,15.10
2022-07-29T03:20:19.616Z,15.10
2022-07-29T03:22:53.206Z,15.10
2022-07-29T03:25:28.136Z,15.10
2022-07-29T03:28:01.896Z,15.10
2022-07-29T03:30:35.315Z,15.10
2022-07-29T03:33:13.618Z,15.10
2022-07-29T03:35:48.778Z,15.10
2022-07-29T03:38:25.461Z,15.10
2022-07-29T03:41:03.527Z,15.20
2022-07-29T03:43:49.882Z,15.10
2022-07-29T03:46:26.088Z,15.20
2022-07-29T03:49:03.454Z,15.20
2022-07-29T03:51:38.607Z,15.20
2022-07-29T03:54:12.908Z,15.20
2022-07-29T03:56:48.600Z,15.20
2022-07-29T03:59:23.743Z,15.20
2022-07-29T04:01:59.290Z,15.20
2022-07-29T04:04:35.701Z,15.20
2022-07-29T04:07:14.552Z,15.20
2022-07-29T04:09:48.130Z,15.20
2022-07-29T04:12:22.188Z,15.20
2022-07-29T04:14:55.567Z,15.20
2022-07-29T04:17:28.990Z,15.20
2022-07-29T04:20:02.544Z,15.20
2022-07-29T04:22:37.385Z,15.20
2022-07-29T04:25:11.306Z,15.20
2022-07-29T04:27:58.542Z,15.20
2022-07-29T04:30:32.911Z,15.20
2022-07-29T04:33:08.295Z,15.30
2022-07-29T04:35:50.377Z,15.30
2022-07-29T04:38:27.526Z,15.30
2022-07-29T04:41:00.900Z,15.30
2022-07-29T04:43:36.737Z,15.30
2022-07-29T04:46:10.411Z,15.30
2022-07-29T04:48:44.332Z,15.40
2022-07-29T04:51:19.723Z,15.40
2022-07-29T04:53:54.589Z,15.40
2022-07-29T04:56:28.062Z,15.50
2022-07-29T04:59:01.410Z,15.50
2022-07-29T05:01:34.867Z,15.60
2022-07-29T05:04:08.311Z,15.60
2022-07-29T05:06:41.763Z,15.70
2022-07-29T05:09:16.793Z,15.70
2022-07-29T05:11:50.336Z,15.80
2022-07-29T05:14:23.852Z,15.80
2022-07-29T05:16:58.138Z,15.80
2022-07-29T05:19:31.627Z,15.80
2022-07-29T05:22:05.064Z,15.90
2022-07-29T05:24:40.075Z,15.90
2022-07-29T05:27:13.639Z,16.00
2022-07-29T05:29:47.135Z,16.00
2022-07-29T05:32:20.597Z,16.10
2022-07-29T05:34:53.963Z,16.10
2022-07-29T05:37:27.396Z,16.10
2022-07-29T05:40:02.212Z,16.20
2022-07-29T05:42:36.075Z,16.30
2022-07-29T05:45:10.317Z,16.30
2022-07-29T05:47:43.721Z,16.40
2022-07-29T05:50:17.090Z,16.50
2022-07-29T05:52:50.524Z,16.50
2022-07-29T05:55:25.322Z,16.60
2022-07-29T05:57:58.725Z,16.70
2022-07-29T06:00:32.327Z,16.80
2022-07-29T06:03:05.706Z,16.90
2022-07-29T06:05:39.240Z,17.00
2022-07-29T06:08:12.676Z,17.10
2022-07-29T06:10:47.710Z,17.20
2022-07-29T06:13:21.072Z,17.30
2022-07-29T06:15:54.671Z,17.40
2022-07-29T06:18:28.219Z,17.50
2022-07-29T06:21:01.711Z,17.60
2022-07-29T06:23:35.855Z,17.80
2022-07-29T06:26:10.944Z,17.90
2022-07-29T06:28:44.375Z,18.00
2022-07-29T06:31:17.839Z,18.20
2022-07-29T06:33:51.371Z,18.30
2022-07-29T06:36:28.014Z,18.50
2022-07-29T06:39:01.461Z,18.70
2022-07-29T06:41:38.681Z,18.80
2022-07-29T06:44:16.634Z,19.00
2022-07-29T06:46:52.610Z,19.10
2022-07-29T06:49:28.390Z,19.30
2022-07-29T06:52:01.853Z,19.40
2022-07-29T06:54:35.569Z,19.50
2022-07-29T06:57:10.342Z,19.60
2022-07-29T06:59:43.915Z,19.80
2022-07-29T07:02:17.448Z,20.00
2022-07-29T07:04:50.993Z,20.10
2022-07-29T07:07:24.329Z,20.30
2022-07-29T07:09:57.752Z,20.50
2022-07-29T07:12:32.450Z,20.70
2022-07-29T07:15:07.168Z,20.90
2022-07-29T07:17:40.534Z,21.00
2022-07-29T07:20:13.933Z,21.20
2022-07-29T07:22:47.425Z,21.30
2022-07-29T07:25:20.955Z,21.40
2022-07-29T07:27:56.058Z,21.60
2022-07-29T07:30:29.697Z,21.70
2022-07-29T07:33:03.235Z,21.90
2022-07-29T07:35:36.826Z,22.00
2022-07-29T07:38:10.351Z,22.10
2022-07-29T07:40:43.777Z,22.30
2022-07-29T07:43:18.521Z,22.50
2022-07-29T07:45:52.000Z,22.60
2022-07-29T07:48:25.470Z,22.80
2022-07-29T07:50:58.899Z,23.00
2022-07-29T07:53:32.610Z,23.10
2022-07-29T07:56:10.940Z,23.40
2022-07-29T07:58:46.470Z,23.60
2022-07-29T08:01:22.247Z,23.80
2022-07-29T08:03:55.665Z,24.10
2022-07-29T08:06:29.108Z,24.40
2022-07-29T08:09:26.616Z,24.60
2022-07-29T08:11:56.377Z,24.90
2022-07-29T08:14:31.289Z,25.20
2022-07-29T08:17:04.959Z,25.50
2022-07-29T08:19:39.590Z,25.80
2022-07-29T08:22:13.021Z,26.00
2022-07-29T08:24:55.692Z,26.30
2022-07-29T08:27:43.555Z,26.60
2022-07-29T08:30:18.927Z,26.80
2022-07-29T08:32:55.054Z,27.10
2022-07-29T08:35:34.830Z,27.30
2022-07-29T08:38:09.189Z,27.50
2022-07-29T08:40:42.804Z,27.70
2022-07-29T08:43:16.294Z,27.80
2022-07-29T08:45:53.015Z,28.00
2022-07-29T08:48:26.922Z,28.10
2022-07-29T08:51:00.580Z,28.10
2022-07-29T08:53:35.146Z,28.20
2022-07-29T08:56:08.736Z,28.40
2022-07-29T08:58:43.122Z,28.60
2022-07-29T09:01:36.090Z,28.50
2022-07-29T09:04:16.643Z,28.60
2022-07-29T09:06:53.773Z,28.70
2022-07-29T09:09:27.364Z,28.80
2022-07-29T09:12:01.906Z,29.00
2022-07-29T09:14:35.305Z,29.30
2022-07-29T09:17:10.828Z,29.60
2022-07-29T09:19:45.587Z,29.80
2022-07-29T09:22:32.859Z,30.10
2022-07-29T09:25:06.998Z,30.30
2022-07-29T09:27:40.457Z,30.40
2022-07-29T09:30:31.413Z,30.50
2022-07-29T09:33:07.825Z,30.70
2022-07-29T09:35:41.877Z,30.90
2022-07-29T09:38:30.522Z,31.00
2022-07-29T09:41:06.510Z,31.20
2022-07-29T09:43:41.617Z,31.40
2022-07-29T09:46:16.372Z,31.40
2022-07-29T09:49:09.049Z,31.60
2022-07-29T09:51:42.659Z,31.90
2022-07-29T09:54:26.831Z,32.10
2022-07-29T09:57:00.225Z,32.40
2022-07-29T09:59:34.478Z,32.50
2022-07-29T10:02:18.908Z,32.80
2022-07-29T10:04:57.432Z,32.90
2022-07-29T10:07:50.485Z,33.10
2022-07-29T10:10:28.544Z,33.50
2022-07-29T10:13:08.887Z,33.70
2022-07-29T10:15:47.447Z,34.00
2022-07-29T10:18:21.162Z,34.20
2022-07-29T10:20:56.435Z,34.30
2022-07-29T10:23:30.883Z,34.50
2022-07-29T10:26:22.112Z,34.60
2022-07-29T10:28:56.882Z,34.80
2022-07-29T10:31:38.047Z,35.00
2022-07-29T10:34:43.393Z,35.20
2022-07-29T10:37:36.217Z,35.20
2022-07-29T10:40:35.789Z,35.30
2022-07-29T10:43:19.901Z,35.30
2022-07-29T10:45:59.224Z,35.40
2022-07-29T10:48:32.774Z,35.60
2022-07-29T10:51:09.302Z,35.70
2022-07-29T10:53:53.483Z,35.80
2022-07-29T10:56:29.390Z,36.00
2022-07-29T10:59:25.156Z,36.00
2022-07-29T11:02:15.975Z,36.20
2022-07-29T11:05:04.241Z,36.30
2022-07-29T11:07:45.756Z,36.40
2022-07-29T11:10:26.953Z,36.10
2022-07-29T11:13:05.032Z,36.00
2022-07-29T11:15:54.619Z,35.60
2022-07-29T11:18:29.078Z,35.40
2022-07-29T11:21:04.611Z,35.20
2022-07-29T11:23:42.741Z,35.20
2022-07-29T11:29:23.255Z,35.20
2022-07-29T11:32:15.878Z,35.20
2022-07-29T11:35:17.747Z,35.20
2022-07-29T11:38:31.684Z,35.20
2022-07-29T11:41:31.839Z,35.30
2022-07-29T11:44:06.299Z,35.20
2022-07-29T11:46:47.610Z,35.10
2022-07-29T11:49:32.365Z,35.20
2022-07-29T11:52:06.678Z,35.00
2022-07-29T11:54:57.866Z,35.10
2022-07-29T11:57:37.191Z,35.10
2022-07-29T12:00:14.530Z,35.10
2022-07-29T12:02:52.295Z,35.10
2022-07-29T12:05:36.786Z,35.10
2022-07-29T12:09:02.000Z,34.90
2022-07-29T12:12:11.604Z,34.80
2022-07-29T12:14:56.177Z,34.60
2022-07-29T12:17:31.301Z,34.50
2022-07-29T12:20:07.520Z,34.40
2022-07-29T12:22:45.355Z,34.20
2022-07-29T12:25:34.997Z,34.20
2022-07-29T12:28:09.793Z,34.00
2022-07-29T12:30:51.744Z,33.90
2022-07-29T12:33:27.570Z,33.80
2022-07-29T12:36:07.301Z,33.70
2022-07-29T12:38:42.849Z,33.60
2022-07-29T12:41:16.418Z,33.60
2022-07-29T12:43:55.472Z,33.60
2022-07-29T12:46:30.545Z,33.60
2022-07-29T12:49:04.492Z,33.60
2022-07-29T12:51:39.643Z,33.40
2022-07-29T12:54:15.224Z,33.30
2022-07-29T12:56:48.622Z,33.20
2022-07-29T12:59:24.554Z,33.10
2022-07-29T13:02:01.059Z,33.00
2022-07-29T13:04:37.592Z,32.90
2022-07-29T13:07:12.869Z,32.80
2022-07-29T13:09:48.736Z,32.70
2022-07-29T13:12:22.448Z,32.60
2022-07-29T13:14:55.813Z,32.50
2022-07-29T13:17:41.598Z,32.40
2022-07-29T13:20:16.121Z,32.20
2022-07-29T13:22:50.542Z,32.10
2022-07-29T13:25:28.676Z,32.00
2022-07-29T13:28:02.091Z,31.90
2022-07-29T13:30:35.908Z,31.70
2022-07-29T13:33:19.568Z,31.60
2022-07-29T13:35:53.020Z,31.60
2022-07-29T13:38:30.905Z,31.70
2022-07-29T13:41:04.907Z,31.70
2022-07-29T13:43:39.033Z,31.90
2022-07-29T13:46:12.433Z,31.90
2022-07-29T13:48:47.298Z,32.10
2022-07-29T13:51:20.715Z,32.20
2022-07-29T13:53:54.089Z,32.20
2022-07-29T13:56:27.581Z,32.30
2022-07-29T13:59:01.157Z,32.40
2022-07-29T14:01:34.901Z,32.40
2022-07-29T14:04:10.278Z,32.50
2022-07-29T14:06:48.507Z,32.70
2022-07-29T14:09:22.287Z,32.90
2022-07-29T14:11:55.881Z,33.00
2022-07-29T14:14:29.469Z,33.10
2022-07-29T14:17:04.174Z,33.00
2022-07-29T14:19:39.908Z,32.90
2022-07-29T14:22:13.650Z,33.00
2022-07-29T14:24:47.490Z,33.10
2022-07-29T14:27:37.497Z,33.20
2022-07-29T14:30:12.797Z,33.30
2022-07-29T14:32:46.228Z,33.30
2022-07-29T14:35:20.982Z,33.30
2022-07-29T14:37:54.377Z,33.20
2022-07-29T14:40:27.767Z,33.20
2022-07-29T14:43:01.294Z,33.00
2022-07-29T14:45:34.852Z,32.80
2022-07-29T14:48:08.589Z,32.70
2022-07-29T14:50:43.408Z,32.60
2022-07-29T14:53:16.860Z,32.60
2022-07-29T14:55:50.596Z,32.50
2022-07-29T14:58:24.112Z,32.30
2022-07-29T15:00:57.707Z,32.20
2022-07-29T15:03:31.249Z,32.10
2022-07-29T15:06:08.937Z,32.00
2022-07-29T15:08:42.361Z,31.90
2022-07-29T15:11:15.881Z,31.80
2022-07-29T15:13:49.385Z,31.60
2022-07-29T15:16:22.782Z,31.50
2022-07-29T15:18:57.711Z,31.40
2022-07-29T15:21:36.252Z,31.20
2022-07-29T15:24:15.121Z,31.00
2022-07-29T15:26:49.318Z,31.00
2022-07-29T15:29:22.747Z,30.80
2022-07-29T15:31:56.697Z,30.70
2022-07-29T15:34:30.285Z,30.50
2022-07-29T15:37:05.259Z,30.40
2022-07-29T15:39:38.840Z,30.30
2022-07-29T15:42:12.200Z,30.30
2022-07-29T15:44:45.680Z,30.10
2022-07-29T15:47:19.077Z,30.00
2022-07-29T15:49:52.507Z,29.90
2022-07-29T15:52:27.391Z,29.80
2022-07-29T15:55:00.817Z,29.50
2022-07-29T15:57:34.466Z,29.30
2022-07-29T16:00:09.268Z,29.00
2022-07-29T16:02:42.675Z,28.60
2022-07-29T16:05:16.061Z,28.10
2022-07-29T16:07:50.883Z,27.40
2022-07-29T16:10:24.357Z,26.80
2022-07-29T16:12:57.756Z,26.10
2022-07-29T16:15:31.227Z,25.70
2022-07-29T16:18:04.988Z,25.10
2022-07-29T16:20:38.516Z,24.60
2022-07-29T16:23:13.349Z,24.10
2022-07-29T16:26:01.754Z,23.60
2022-07-29T16:28:36.066Z,23.20
2022-07-29T16:31:09.775Z,22.80
2022-07-29T16:33:54.379Z,22.60
2022-07-29T16:36:29.326Z,22.40
2022-07-29T16:39:05.705Z,22.30
2022-07-29T16:41:39.149Z,22.10
2022-07-29T16:44:12.707Z,21.90
2022-07-29T16:46:46.299Z,21.80
2022-07-29T16:49:22.328Z,21.70
2022-07-29T16:51:55.946Z,21.60
2022-07-29T16:54:30.852Z,21.50
2022-07-29T16:57:04.385Z,21.40
2022-07-29T16:59:43.625Z,21.20
2022-07-29T17:02:17.233Z,21.20
2022-07-29T17:04:50.668Z,21.10
2022-07-29T17:07:24.121Z,20.90
2022-07-29T17:10:03.623Z,20.90
2022-07-29T17:12:38.010Z,20.80
2022-07-29T17:15:13.276Z,20.70
2022-07-29T17:17:55.104Z,20.70
2022-07-29T17:20:29.192Z,20.70
2022-07-29T17:23:02.775Z,20.70
2022-07-29T17:25:37.651Z,20.70
2022-07-29T17:28:11.018Z,20.60
2022-07-29T17:30:45.613Z,20.60
2022-07-29T17:33:19.016Z,20.60
2022-07-29T17:36:10.145Z,20.60
2022-07-29T17:38:43.564Z,20.50
2022-07-29T17:41:18.449Z,20.50
2022-07-29T17:43:52.551Z,20.40
2022-07-29T17:46:27.594Z,20.40
2022-07-29T17:49:01.129Z,20.50
2022-07-29T17:51:34.937Z,20.50
2022-07-29T17:54:08.458Z,20.40
2022-07-29T17:56:43.276Z,20.40
2022-07-29T17:59:16.767Z,20.40
2022-07-29T18:01:50.348Z,20.40
2022-07-29T18:04:23.954Z,20.40
2022-07-29T18:06:57.662Z,20.40
2022-07-29T18:09:31.336Z,20.40
2022-07-29T18:12:06.704Z,20.30
2022-07-29T18:14:40.415Z,20.30
2022-07-29T18:17:13.995Z,20.20
2022-07-29T18:19:48.286Z,20.20
2022-07-29T18:22:22.176Z,20.10
2022-07-29T18:24:58.639Z,20.00
2022-07-29T18:27:34.800Z,19.90
2022-07-29T18:30:09.457Z,19.70
2022-07-29T18:33:05.039Z,19.70
2022-07-29T18:35:39.243Z,19.60
2022-07-29T18:38:12.950Z,19.50
2022-07-29T18:40:46.782Z,19.50
2022-07-29T18:43:21.684Z,19.50
2022-07-29T18:45:55.488Z,19.50
2022-07-29T18:48:28.998Z,19.50
2022-07-29T18:51:02.472Z,19.50
2022-07-29T18:53:43.007Z,19.50
2022-07-29T18:56:16.433Z,19.50
2022-07-29T18:58:51.213Z,19.50
2022-07-29T19:01:24.796Z,19.40
2022-07-29T19:04:05.866Z,19.50
2022-07-29T19:06:40.799Z,19.50
2022-07-29T19:09:14.613Z,19.50
2022-07-29T19:11:49.526Z,19.50
2022-07-29T19:14:26.982Z,19.40
2022-07-29T19:17:00.537Z,19.40
2022-07-29T19:19:34.007Z,19.40
2022-07-29T19:22:07.530Z,19.40
2022-07-29T19:24:40.979Z,19.30
2022-07-29T19:27:14.466Z,19.30
2022-07-29T19:29:49.398Z,19.30
2022-07-29T19:32:25.412Z,19.30
2022-07-29T19:35:16.321Z,19.20
2022-07-29T19:37:49.731Z,19.20
2022-07-29T19:40:24.005Z,19.10
2022-07-29T19:42:58.168Z,19.10
2022-07-29T19:45:33.111Z,19.10
2022-07-29T19:48:07.062Z,19.10
2022-07-29T19:50:40.532Z,19.10
2022-07-29T19:53:16.548Z,19.10
2022-07-29T19:55:50.192Z,19.10
2022-07-29T19:58:23.722Z,19.10
2022-07-29T20:01:02.788Z,19.10
2022-07-29T20:03:44.825Z,19.10
2022-07-29T20:06:18.379Z,19.10
2022-07-29T20:08:55.358Z,19.10
2022-07-29T20:11:32.391Z,19.10
2022-07-29T20:14:06.468Z,19.10
2022-07-29T20:16:41.269Z,19.00
2022-07-29T20:19:14.759Z,19.00
2022-07-29T20:21:48.181Z,19.00
2022-07-29T20:24:22.459Z,19.00
2022-07-29T20:26:55.910Z,19.00
2022-07-29T20:29:29.376Z,19.00
2022-07-29T20:32:04.306Z,19.00
2022-07-29T20:34:37.745Z,19.00
2022-07-29T20:37:13.428Z,19.00
2022-07-29T20:39:47.932Z,19.00
2022-07-29T20:42:21.434Z,18.90
2022-07-29T20:44:57.812Z,18.90
2022-07-29T20:47:32.663Z,18.90
2022-07-29T20:50:07.225Z,18.90
2022-07-29T20:52:41.464Z,18.80
2022-07-29T20:55:14.919Z,18.80
2022-07-29T20:57:48.725Z,18.70
2022-07-29T21:00:25.189Z,18.70
2022-07-29T21:03:00.030Z,18.70
2022-07-29T21:05:33.583Z,18.70
2022-07-29T21:08:07.520Z,18.70
2022-07-29T21:10:40.976Z,18.60
2022-07-29T21:13:14.874Z,18.60
2022-07-29T21:15:49.841Z,18.60
2022-07-29T21:18:32.394Z,18.60
2022-07-29T21:21:06.905Z,18.50
2022-07-29T21:23:40.657Z,18.50
2022-07-29T21:26:14.179Z,18.40
2022-07-29T21:28:46.605Z,18.40
2022-07-29T21:31:23.912Z,18.40
2022-07-29T21:33:58.755Z,18.40
2022-07-29T21:36:48.693Z,18.40
2022-07-29T21:39:22.577Z,18.40
2022-07-29T21:41:56.326Z,18.30
2022-07-29T21:44:29.790Z,18.30
2022-07-29T21:47:03.417Z,18.30
2022-07-29T21:49:38.366Z,18.30
2022-07-29T21:52:11.778Z,18.30
2022-07-29T21:54:45.955Z,18.30
2022-07-29T21:57:19.505Z,18.30
2022-07-29T21:59:53.000Z,18.30
2022-07-29T22:02:26.421Z,18.30
2022-07-29T22:05:01.380Z,18.30
2022-07-29T22:07:56.360Z,18.40
2022-07-29T22:10:30.653Z,18.30
2022-07-29T22:13:04.356Z,18.30
2022-07-29T22:15:37.879Z,18.30
2022-07-29T22:18:11.241Z,18.30
2022-07-29T22:20:46.436Z,18.30
2022-07-29T22:23:19.966Z,18.30
2022-07-29T22:25:53.399Z,18.30
2022-07-29T22:28:26.775Z,18.30
2022-07-29T22:31:00.442Z,18.30
2022-07-29T22:33:33.894Z,18.30
2022-07-29T22:36:09.180Z,18.30
2022-07-29T22:38:42.678Z,18.30
2022-07-29T22:41:16.163Z,18.30
2022-07-29T22:43:49.694Z,18.30
2022-07-29T22:46:23.235Z,18.30
2022-07-29T22:48:57.727Z,18.30
2022-07-29T22:51:32.715Z,18.30
2022-07-29T22:54:06.675Z,18.30
2022-07-29T22:56:40.198Z,18.30
2022-07-29T22:59:13.572Z,18.30
2022-07-29T23:01:47.101Z,18.30
2022-07-29T23:04:23.682Z,18.30
2022-07-29T23:06:58.659Z,18.30
2022-07-29T23:09:32.400Z,18.30
2022-07-29T23:12:07.738Z,18.30
2022-07-29T23:14:41.800Z,18.30
2022-07-29T23:17:15.243Z,18.30
2022-07-29T23:19:48.905Z,18.30
2022-07-29T23:22:23.743Z,18.30
2022-07-29T23:24:57.345Z,18.30
2022-07-29T23:27:30.836Z,18.30
2022-07-29T23:30:05.335Z,18.30
2022-07-29T23:32:39.881Z,18.20
2022-07-29T23:35:13.316Z,18.20
2022-07-29T23:37:48.255Z,18.20
2022-07-29T23:40:21.817Z,18.20
2022-07-29T23:42:55.239Z,18.30
2022-07-29T23:45:42.831Z,18.20
2022-07-29T23:48:18.758Z,18.20
2022-07-29T23:50:52.133Z,18.20
2022-07-29T23:53:27.024Z,18.20
2022-07-29T23:56:00.521Z,18.20
2022-07-29T23:58:34.663Z,18.20
